Copper Canyon, Texas
Current Conditions -  °F | °C
As of 1:53 AM on Friday 31 Oct 2014 (Local Time) from KDFW Reporting Station
Clear Clear  
Wind Chill: 58°   Ceiling: Unl
Heat Index: 58°   Visibility: 10mi
Dew Point: 50°   Wind: 12mph
Humidity: 75%   Direction: 330°NNW
Pressure: 30.18"   Gusts: NA
Location:  33.0461°N, 96.9938°W
Report Text: KDFW 310653Z 33010KT 10SM CLR 14/10 A3018 RMK AO2 SLP215 T01440100
Loading
Personal Weather Stations






























Interactive Weather Map
Tropical Storm Tracking
New forecast layout! Learn more

10-Day Weather Forecast

Advertisements
Track Severe Weather on mobile